KBJC/BJC METAR and TAF weather

Enter ICAO airport designator
Station Type Date Time Source
KBJC METAR 2019/08/22 02:45 UTC NOAA

KBJC 220245Z 19012KT 15SM VCSH FEW070 BKN110 BKN150 19/13 A3018 RMK OCNL LTGICCG DSNT SE-SW VIRGA W


Station Type Date Time Source
KBJC Decoded METAR 2019/08/22 02:45 UTC NOAA

Station name not available
Aug 21, 2019 - 10:45 PM EDT / 2019.08.22 0245 UTC
Wind: from the S (190 degrees) at 14 MPH (12 KT):0
Visibility: 15 mile(s):0
Sky conditions: mostly cloudy
Weather: showers in the vicinity; Lightning observed
Temperature: 66 F (19 C)
Dew Point: 55 F (13 C)
Relative Humidity: 68%
Pressure (altimeter): 30.18 in. Hg (1022 hPa)
ob: KBJC 220245Z 19012KT 15SM VCSH FEW070 BKN110 BKN150 19/13 A3018 RMK OCNL LTGICCG DSNT SE-SW VIRGA W
cycle: 3

Station Type Date Time Source
KBJC TAF 2019/08/21 18:27 UTC NOAA

TAF KBJC 211724Z 2118/2218 05008KT P6SM SCT035
FM212100 08010KT P6SM BKN050
TEMPO 2122/2202 VRB20G35KT -TSRA BKN050CB
FM220300 30010KT P6SM BKN060
FM220800 34008KT P6SM FEW020 SCT080 SCT150
FM221400 02007KT P6SM SCT100

Example: see airport list